sensor_id;sensor_type;location;lat;lon;timestamp;temperature;humidity
17728;DHT22;8984;49.268;12.302;2024-01-30T00:01:06;0.60;99.90
17728;DHT22;8984;49.268;12.302;2024-01-30T00:03:33;0.50;99.90
17728;DHT22;8984;49.268;12.302;2024-01-30T00:06:03;0.50;99.90
17728;DHT22;8984;49.268;12.302;2024-01-30T00:08:30;0.50;99.90
17728;DHT22;8984;49.268;12.302;2024-01-30T00:10:57;0.50;99.90
17728;DHT22;8984;49.268;12.302;2024-01-30T00:13:24;0.40;99.90
17728;DHT22;8984;49.268;12.302;2024-01-30T00:15:50;0.40;99.90
17728;DHT22;8984;49.268;12.302;2024-01-30T00:18:17;0.40;99.90
17728;DHT22;8984;49.268;12.302;2024-01-30T00:20:45;0.40;99.90
17728;DHT22;8984;49.268;12.302;2024-01-30T00:23:13;0.50;99.90
17728;DHT22;8984;49.268;12.302;2024-01-30T00:25:40;0.40;99.90
17728;DHT22;8984;49.268;12.302;2024-01-30T00:28:07;0.40;99.90
17728;DHT22;8984;49.268;12.302;2024-01-30T00:30:33;0.40;99.90
17728;DHT22;8984;49.268;12.302;2024-01-30T00:33:00;0.40;99.90
17728;DHT22;8984;49.268;12.302;2024-01-30T00:35:27;0.30;99.90
17728;DHT22;8984;49.268;12.302;2024-01-30T00:37:54;0.30;99.90
17728;DHT22;8984;49.268;12.302;2024-01-30T00:40:23;0.30;99.90
17728;DHT22;8984;49.268;12.302;2024-01-30T00:42:49;0.20;99.90
17728;DHT22;8984;49.268;12.302;2024-01-30T00:45:17;0.20;99.90
17728;DHT22;8984;49.268;12.302;2024-01-30T00:47:44;0.20;99.90
17728;DHT22;8984;49.268;12.302;2024-01-30T00:50:11;0.30;99.90
17728;DHT22;8984;49.268;12.302;2024-01-30T00:52:38;0.30;99.90
17728;DHT22;8984;49.268;12.302;2024-01-30T00:55:07;0.30;99.90
17728;DHT22;8984;49.268;12.302;2024-01-30T00:57:35;0.30;99.90
17728;DHT22;8984;49.268;12.302;2024-01-30T01:00:02;0.30;99.90
17728;DHT22;8984;49.268;12.302;2024-01-30T01:02:31;0.20;99.90
17728;DHT22;8984;49.268;12.302;2024-01-30T01:04:58;0.20;99.90
17728;DHT22;8984;49.268;12.302;2024-01-30T01:07:25;0.20;99.90
17728;DHT22;8984;49.268;12.302;2024-01-30T01:09:52;0.10;99.90
17728;DHT22;8984;49.268;12.302;2024-01-30T01:12:19;0.10;99.90
17728;DHT22;8984;49.268;12.302;2024-01-30T01:14:47;0.10;99.90
17728;DHT22;8984;49.268;12.302;2024-01-30T01:17:14;0.10;99.90
17728;DHT22;8984;49.268;12.302;2024-01-30T01:19:41;0.10;99.90
17728;DHT22;8984;49.268;12.302;2024-01-30T01:22:07;0.10;99.90
17728;DHT22;8984;49.268;12.302;2024-01-30T01:24:35;0.00;99.90
17728;DHT22;8984;49.268;12.302;2024-01-30T01:27:02;0.10;99.90
17728;DHT22;8984;49.268;12.302;2024-01-30T01:29:29;0.00;99.90
17728;DHT22;8984;49.268;12.302;2024-01-30T01:31:58;0.00;99.90
17728;DHT22;8984;49.268;12.302;2024-01-30T01:34:25;0.00;99.90
17728;DHT22;8984;49.268;12.302;2024-01-30T01:36:52;0.00;99.90
17728;DHT22;8984;49.268;12.302;2024-01-30T01:39:21;0.00;99.90
17728;DHT22;8984;49.268;12.302;2024-01-30T01:41:48;0.00;99.90
17728;DHT22;8984;49.268;12.302;2024-01-30T01:44:15;-0.10;99.90
17728;DHT22;8984;49.268;12.302;2024-01-30T01:46:42;-0.10;99.90
17728;DHT22;8984;49.268;12.302;2024-01-30T01:49:11;-0.10;99.90
17728;DHT22;8984;49.268;12.302;2024-01-30T01:51:38;-0.20;99.90
17728;DHT22;8984;49.268;12.302;2024-01-30T01:54:07;-0.20;99.90
17728;DHT22;8984;49.268;12.302;2024-01-30T01:56:35;-0.20;99.90
17728;DHT22;8984;49.268;12.302;2024-01-30T01:59:05;-0.30;99.90
17728;DHT22;8984;49.268;12.302;2024-01-30T02:01:33;-0.20;99.90
17728;DHT22;8984;49.268;12.302;2024-01-30T02:04:00;-0.30;99.90
17728;DHT22;8984;49.268;12.302;2024-01-30T02:06:28;-0.30;99.90
17728;DHT22;8984;49.268;12.302;2024-01-30T02:08:55;-0.20;99.90
17728;DHT22;8984;49.268;12.302;2024-01-30T02:11:23;-0.30;99.90
17728;DHT22;8984;49.268;12.302;2024-01-30T02:13:50;-0.30;99.90
17728;DHT22;8984;49.268;12.302;2024-01-30T02:16:17;-0.20;99.90
17728;DHT22;8984;49.268;12.302;2024-01-30T02:18:43;-0.20;99.90
17728;DHT22;8984;49.268;12.302;2024-01-30T02:21:15;-0.30;99.90
17728;DHT22;8984;49.268;12.302;2024-01-30T02:23:43;-0.30;99.90
17728;DHT22;8984;49.268;12.302;2024-01-30T02:26:11;-0.30;99.90
17728;DHT22;8984;49.268;12.302;2024-01-30T02:28:38;-0.30;99.90
17728;DHT22;8984;49.268;12.302;2024-01-30T02:31:05;-0.40;99.90
17728;DHT22;8984;49.268;12.302;2024-01-30T02:33:32;-0.40;99.90
17728;DHT22;8984;49.268;12.302;2024-01-30T02:35:59;-0.50;99.90
17728;DHT22;8984;49.268;12.302;2024-01-30T02:38:27;-0.50;99.90
17728;DHT22;8984;49.268;12.302;2024-01-30T02:40:54;-0.50;99.90
17728;DHT22;8984;49.268;12.302;2024-01-30T02:43:21;-0.50;99.90
17728;DHT22;8984;49.268;12.302;2024-01-30T02:45:48;-0.50;99.90
17728;DHT22;8984;49.268;12.302;2024-01-30T02:48:15;-0.50;99.90
17728;DHT22;8984;49.268;12.302;2024-01-30T02:50:42;-0.50;99.90
17728;DHT22;8984;49.268;12.302;2024-01-30T02:53:09;-0.50;99.90
17728;DHT22;8984;49.268;12.302;2024-01-30T02:55:37;-0.60;99.90
17728;DHT22;8984;49.268;12.302;2024-01-30T02:58:04;-0.60;99.90
17728;DHT22;8984;49.268;12.302;2024-01-30T03:00:31;-0.60;99.90
17728;DHT22;8984;49.268;12.302;2024-01-30T03:02:57;-0.70;99.90
17728;DHT22;8984;49.268;12.302;2024-01-30T03:05:25;-0.70;99.90
17728;DHT22;8984;49.268;12.302;2024-01-30T03:07:51;-0.70;99.90
17728;DHT22;8984;49.268;12.302;2024-01-30T03:10:18;-0.70;99.90
17728;DHT22;8984;49.268;12.302;2024-01-30T03:12:46;-0.70;99.90
17728;DHT22;8984;49.268;12.302;2024-01-30T03:15:13;-0.80;99.90
17728;DHT22;8984;49.268;12.302;2024-01-30T03:17:41;-0.90;99.90
17728;DHT22;8984;49.268;12.302;2024-01-30T03:20:08;-0.80;99.90
17728;DHT22;8984;49.268;12.302;2024-01-30T03:22:35;-0.80;99.90
17728;DHT22;8984;49.268;12.302;2024-01-30T03:25:03;-0.80;99.90
17728;DHT22;8984;49.268;12.302;2024-01-30T03:27:30;-0.80;99.90
17728;DHT22;8984;49.268;12.302;2024-01-30T03:29:58;-0.80;99.90
17728;DHT22;8984;49.268;12.302;2024-01-30T03:32:25;-0.80;99.90
17728;DHT22;8984;49.268;12.302;2024-01-30T03:34:52;-0.80;99.90
17728;DHT22;8984;49.268;12.302;2024-01-30T03:37:19;-0.80;99.90
17728;DHT22;8984;49.268;12.302;2024-01-30T03:39:46;-0.70;99.90
17728;DHT22;8984;49.268;12.302;2024-01-30T03:42:13;-0.70;99.90
17728;DHT22;8984;49.268;12.302;2024-01-30T03:44:39;-0.70;99.90
17728;DHT22;8984;49.268;12.302;2024-01-30T03:47:08;-0.70;99.90
17728;DHT22;8984;49.268;12.302;2024-01-30T03:49:35;-0.70;99.90
17728;DHT22;8984;49.268;12.302;2024-01-30T03:52:02;-0.70;99.90
17728;DHT22;8984;49.268;12.302;2024-01-30T03:54:29;-0.70;99.90
17728;DHT22;8984;49.268;12.302;2024-01-30T03:56:55;-0.70;99.90
17728;DHT22;8984;49.268;12.302;2024-01-30T03:59:22;-0.80;99.90
17728;DHT22;8984;49.268;12.302;2024-01-30T04:01:49;-0.80;99.90
17728;DHT22;8984;49.268;12.302;2024-01-30T04:04:18;-0.80;99.90
17728;DHT22;8984;49.268;12.302;2024-01-30T04:06:45;-0.80;99.90
17728;DHT22;8984;49.268;12.302;2024-01-30T04:09:13;-0.80;99.90
17728;DHT22;8984;49.268;12.302;2024-01-30T04:11:40;-0.80;99.90
17728;DHT22;8984;49.268;12.302;2024-01-30T04:14:07;-0.90;99.90
17728;DHT22;8984;49.268;12.302;2024-01-30T04:16:34;-0.90;99.90
17728;DHT22;8984;49.268;12.302;2024-01-30T04:19:01;-1.00;99.90
17728;DHT22;8984;49.268;12.302;2024-01-30T04:21:30;-1.00;99.90
17728;DHT22;8984;49.268;12.302;2024-01-30T04:23:56;-1.00;99.90
17728;DHT22;8984;49.268;12.302;2024-01-30T04:26:23;-1.00;99.90
17728;DHT22;8984;49.268;12.302;2024-01-30T04:28:50;-1.00;99.90
17728;DHT22;8984;49.268;12.302;2024-01-30T04:31:17;-1.00;99.90
17728;DHT22;8984;49.268;12.302;2024-01-30T04:33:44;-1.00;99.90
17728;DHT22;8984;49.268;12.302;2024-01-30T04:36:10;-0.90;99.90
17728;DHT22;8984;49.268;12.302;2024-01-30T04:38:39;-0.90;99.90
17728;DHT22;8984;49.268;12.302;2024-01-30T04:41:06;-1.00;99.90
17728;DHT22;8984;49.268;12.302;2024-01-30T04:43:32;-1.00;99.90
17728;DHT22;8984;49.268;12.302;2024-01-30T04:45:59;-1.00;99.90
17728;DHT22;8984;49.268;12.302;2024-01-30T04:48:26;-1.10;99.90
17728;DHT22;8984;49.268;12.302;2024-01-30T04:50:53;-1.10;99.90
17728;DHT22;8984;49.268;12.302;2024-01-30T04:53:21;-1.10;99.90
17728;DHT22;8984;49.268;12.302;2024-01-30T04:55:50;-1.10;99.90
17728;DHT22;8984;49.268;12.302;2024-01-30T04:58:16;-1.10;99.90
17728;DHT22;8984;49.268;12.302;2024-01-30T05:00:43;-1.10;99.90
17728;DHT22;8984;49.268;12.302;2024-01-30T05:03:11;-1.10;99.90
17728;DHT22;8984;49.268;12.302;2024-01-30T05:05:38;-1.10;99.90
17728;DHT22;8984;49.268;12.302;2024-01-30T05:08:05;-1.10;99.90
17728;DHT22;8984;49.268;12.302;2024-01-30T05:10:32;-1.10;99.90
17728;DHT22;8984;49.268;12.302;2024-01-30T05:13:02;-1.10;99.90
17728;DHT22;8984;49.268;12.302;2024-01-30T05:15:30;-1.10;99.90
17728;DHT22;8984;49.268;12.302;2024-01-30T05:17:56;-1.10;99.90
17728;DHT22;8984;49.268;12.302;2024-01-30T05:20:23;-1.10;99.90
17728;DHT22;8984;49.268;12.302;2024-01-30T05:22:53;-1.10;99.90
17728;DHT22;8984;49.268;12.302;2024-01-30T05:25:20;-1.10;99.90
17728;DHT22;8984;49.268;12.302;2024-01-30T05:27:47;-1.20;99.90
17728;DHT22;8984;49.268;12.302;2024-01-30T05:30:15;-1.20;99.90
17728;DHT22;8984;49.268;12.302;2024-01-30T05:32:43;-1.20;99.90
17728;DHT22;8984;49.268;12.302;2024-01-30T05:35:10;-1.20;99.90
17728;DHT22;8984;49.268;12.302;2024-01-30T05:37:36;-1.20;99.90
17728;DHT22;8984;49.268;12.302;2024-01-30T05:40:04;-1.40;99.90
17728;DHT22;8984;49.268;12.302;2024-01-30T05:42:31;-1.50;99.90
17728;DHT22;8984;49.268;12.302;2024-01-30T05:44:58;-1.50;99.90
17728;DHT22;8984;49.268;12.302;2024-01-30T05:47:26;-1.40;99.90
17728;DHT22;8984;49.268;12.302;2024-01-30T05:49:53;-1.50;99.90
17728;DHT22;8984;49.268;12.302;2024-01-30T05:52:20;-1.60;99.90
17728;DHT22;8984;49.268;12.302;2024-01-30T05:54:47;-1.50;99.90
17728;DHT22;8984;49.268;12.302;2024-01-30T05:57:13;-1.50;99.90
17728;DHT22;8984;49.268;12.302;2024-01-30T05:59:41;-1.50;99.90
17728;DHT22;8984;49.268;12.302;2024-01-30T06:02:07;-1.40;99.90
17728;DHT22;8984;49.268;12.302;2024-01-30T06:04:35;-1.40;99.90
17728;DHT22;8984;49.268;12.302;2024-01-30T06:07:04;-1.50;99.90
17728;DHT22;8984;49.268;12.302;2024-01-30T06:09:31;-1.70;99.90
17728;DHT22;8984;49.268;12.302;2024-01-30T06:11:58;-1.60;99.90
17728;DHT22;8984;49.268;12.302;2024-01-30T06:14:25;-1.60;99.90
17728;DHT22;8984;49.268;12.302;2024-01-30T06:16:52;-1.60;99.90
17728;DHT22;8984;49.268;12.302;2024-01-30T06:19:19;-1.50;99.90
17728;DHT22;8984;49.268;12.302;2024-01-30T06:21:47;-1.50;99.90
17728;DHT22;8984;49.268;12.302;2024-01-30T06:24:14;-1.50;99.90
17728;DHT22;8984;49.268;12.302;2024-01-30T06:26:41;-1.50;99.90
17728;DHT22;8984;49.268;12.302;2024-01-30T06:29:08;-1.40;99.90
17728;DHT22;8984;49.268;12.302;2024-01-30T06:31:40;-1.40;99.90
17728;DHT22;8984;49.268;12.302;2024-01-30T06:34:08;-1.40;99.90
17728;DHT22;8984;49.268;12.302;2024-01-30T06:36:34;-1.40;99.90
17728;DHT22;8984;49.268;12.302;2024-01-30T06:39:03;-1.40;99.90
17728;DHT22;8984;49.268;12.302;2024-01-30T06:41:31;-1.40;99.90
17728;DHT22;8984;49.268;12.302;2024-01-30T06:43:57;-1.40;99.90
17728;DHT22;8984;49.268;12.302;2024-01-30T06:46:24;-1.40;99.90
17728;DHT22;8984;49.268;12.302;2024-01-30T06:48:51;-1.40;99.90
17728;DHT22;8984;49.268;12.302;2024-01-30T06:51:18;-1.40;99.90
17728;DHT22;8984;49.268;12.302;2024-01-30T06:53:45;-1.40;99.90
17728;DHT22;8984;49.268;12.302;2024-01-30T06:56:13;-1.30;99.90
17728;DHT22;8984;49.268;12.302;2024-01-30T06:58:40;-1.30;99.90
17728;DHT22;8984;49.268;12.302;2024-01-30T07:01:07;-1.30;99.90
17728;DHT22;8984;49.268;12.302;2024-01-30T07:03:35;-1.30;99.90
17728;DHT22;8984;49.268;12.302;2024-01-30T07:06:02;-1.20;99.90
17728;DHT22;8984;49.268;12.302;2024-01-30T07:08:29;-1.20;99.90
17728;DHT22;8984;49.268;12.302;2024-01-30T07:10:56;-1.20;99.90
17728;DHT22;8984;49.268;12.302;2024-01-30T07:13:24;-1.10;99.90
17728;DHT22;8984;49.268;12.302;2024-01-30T07:15:51;-1.10;99.90
17728;DHT22;8984;49.268;12.302;2024-01-30T07:18:18;-1.10;99.90
17728;DHT22;8984;49.268;12.302;2024-01-30T07:20:45;-1.00;99.90
17728;DHT22;8984;49.268;12.302;2024-01-30T07:23:12;-1.00;99.90
17728;DHT22;8984;49.268;12.302;2024-01-30T07:25:42;-1.00;99.90
17728;DHT22;8984;49.268;12.302;2024-01-30T07:28:09;-1.00;99.90
17728;DHT22;8984;49.268;12.302;2024-01-30T07:30:37;-0.90;99.90
17728;DHT22;8984;49.268;12.302;2024-01-30T07:33:05;-0.90;99.90
17728;DHT22;8984;49.268;12.302;2024-01-30T07:35:31;-0.80;99.90
17728;DHT22;8984;49.268;12.302;2024-01-30T07:37:58;-0.30;99.90
17728;DHT22;8984;49.268;12.302;2024-01-30T07:40:25;-0.30;99.90
17728;DHT22;8984;49.268;12.302;2024-01-30T07:42:53;-0.10;99.90
17728;DHT22;8984;49.268;12.302;2024-01-30T07:45:20;-0.20;99.90
17728;DHT22;8984;49.268;12.302;2024-01-30T07:47:49;-0.10;99.90
17728;DHT22;8984;49.268;12.302;2024-01-30T07:50:16;0.10;99.90
17728;DHT22;8984;49.268;12.302;2024-01-30T07:52:44;0.20;99.90
17728;DHT22;8984;49.268;12.302;2024-01-30T07:55:11;0.30;99.90
17728;DHT22;8984;49.268;12.302;2024-01-30T07:57:38;0.40;99.90
17728;DHT22;8984;49.268;12.302;2024-01-30T08:00:06;0.50;99.90
17728;DHT22;8984;49.268;12.302;2024-01-30T08:02:33;0.50;99.90
17728;DHT22;8984;49.268;12.302;2024-01-30T08:05:02;0.60;99.90
17728;DHT22;8984;49.268;12.302;2024-01-30T08:07:29;0.70;99.90
17728;DHT22;8984;49.268;12.302;2024-01-30T08:09:56;0.70;99.90
17728;DHT22;8984;49.268;12.302;2024-01-30T08:12:23;0.80;99.90
17728;DHT22;8984;49.268;12.302;2024-01-30T08:14:49;0.90;99.90
17728;DHT22;8984;49.268;12.302;2024-01-30T08:17:16;1.00;99.90
17728;DHT22;8984;49.268;12.302;2024-01-30T08:19:43;1.10;99.90
17728;DHT22;8984;49.268;12.302;2024-01-30T08:22:12;1.20;99.90
17728;DHT22;8984;49.268;12.302;2024-01-30T08:24:40;1.40;99.90
17728;DHT22;8984;49.268;12.302;2024-01-30T08:27:07;1.50;99.90
17728;DHT22;8984;49.268;12.302;2024-01-30T08:29:35;1.60;99.90
17728;DHT22;8984;49.268;12.302;2024-01-30T08:32:02;1.70;99.90
17728;DHT22;8984;49.268;12.302;2024-01-30T08:34:29;1.80;99.90
17728;DHT22;8984;49.268;12.302;2024-01-30T08:36:56;2.00;99.90
17728;DHT22;8984;49.268;12.302;2024-01-30T08:39:24;2.00;99.90
17728;DHT22;8984;49.268;12.302;2024-01-30T08:41:51;2.20;99.90
17728;DHT22;8984;49.268;12.302;2024-01-30T08:44:18;2.30;99.90
17728;DHT22;8984;49.268;12.302;2024-01-30T08:46:44;2.40;99.90
17728;DHT22;8984;49.268;12.302;2024-01-30T08:49:13;2.50;99.90
17728;DHT22;8984;49.268;12.302;2024-01-30T08:51:40;2.60;99.90
17728;DHT22;8984;49.268;12.302;2024-01-30T08:54:07;2.80;99.90
17728;DHT22;8984;49.268;12.302;2024-01-30T08:56:35;2.90;99.90
17728;DHT22;8984;49.268;12.302;2024-01-30T08:59:02;3.10;99.90
17728;DHT22;8984;49.268;12.302;2024-01-30T09:01:29;3.20;99.90
17728;DHT22;8984;49.268;12.302;2024-01-30T09:03:56;3.30;99.90
17728;DHT22;8984;49.268;12.302;2024-01-30T09:06:23;3.40;99.90
17728;DHT22;8984;49.268;12.302;2024-01-30T09:08:52;3.60;99.90
17728;DHT22;8984;49.268;12.302;2024-01-30T09:11:19;3.70;99.90
17728;DHT22;8984;49.268;12.302;2024-01-30T09:13:47;3.70;99.90
17728;DHT22;8984;49.268;12.302;2024-01-30T09:16:14;3.70;99.90
17728;DHT22;8984;49.268;12.302;2024-01-30T09:18:41;3.80;99.90
17728;DHT22;8984;49.268;12.302;2024-01-30T09:21:08;3.90;99.90
17728;DHT22;8984;49.268;12.302;2024-01-30T09:23:35;4.10;99.90
17728;DHT22;8984;49.268;12.302;2024-01-30T09:26:02;4.20;99.90
17728;DHT22;8984;49.268;12.302;2024-01-30T09:28:30;4.30;99.90
17728;DHT22;8984;49.268;12.302;2024-01-30T09:30:58;4.40;99.90
17728;DHT22;8984;49.268;12.302;2024-01-30T09:33:25;4.60;99.90
17728;DHT22;8984;49.268;12.302;2024-01-30T09:35:52;4.70;99.90
17728;DHT22;8984;49.268;12.302;2024-01-30T09:38:19;4.80;99.90
17728;DHT22;8984;49.268;12.302;2024-01-30T09:40:50;4.90;99.90
17728;DHT22;8984;49.268;12.302;2024-01-30T09:43:23;4.90;99.90
17728;DHT22;8984;49.268;12.302;2024-01-30T09:45:50;4.90;99.90
17728;DHT22;8984;49.268;12.302;2024-01-30T09:48:19;5.00;99.90
17728;DHT22;8984;49.268;12.302;2024-01-30T09:50:46;5.10;99.90
17728;DHT22;8984;49.268;12.302;2024-01-30T09:53:14;5.20;99.90
17728;DHT22;8984;49.268;12.302;2024-01-30T09:55:43;5.40;99.90
17728;DHT22;8984;49.268;12.302;2024-01-30T09:58:12;5.50;99.90
17728;DHT22;8984;49.268;12.302;2024-01-30T10:00:38;5.80;99.90
17728;DHT22;8984;49.268;12.302;2024-01-30T10:03:05;5.90;99.90
17728;DHT22;8984;49.268;12.302;2024-01-30T10:05:35;6.10;99.90
17728;DHT22;8984;49.268;12.302;2024-01-30T10:08:06;6.20;99.90
17728;DHT22;8984;49.268;12.302;2024-01-30T10:10:33;6.40;99.90
17728;DHT22;8984;49.268;12.302;2024-01-30T10:13:00;6.50;99.90
17728;DHT22;8984;49.268;12.302;2024-01-30T10:15:28;6.60;99.90
17728;DHT22;8984;49.268;12.302;2024-01-30T10:17:55;6.70;99.90
17728;DHT22;8984;49.268;12.302;2024-01-30T10:20:21;6.80;99.90
17728;DHT22;8984;49.268;12.302;2024-01-30T10:22:49;6.90;99.90
17728;DHT22;8984;49.268;12.302;2024-01-30T10:25:17;7.10;99.90
17728;DHT22;8984;49.268;12.302;2024-01-30T10:27:45;7.20;99.90
17728;DHT22;8984;49.268;12.302;2024-01-30T10:30:12;7.30;99.90
17728;DHT22;8984;49.268;12.302;2024-01-30T10:32:39;7.30;99.90
17728;DHT22;8984;49.268;12.302;2024-01-30T10:35:06;7.40;99.90
17728;DHT22;8984;49.268;12.302;2024-01-30T10:37:34;7.50;99.90
17728;DHT22;8984;49.268;12.302;2024-01-30T10:40:04;7.50;99.90
17728;DHT22;8984;49.268;12.302;2024-01-30T10:42:32;7.60;99.90
17728;DHT22;8984;49.268;12.302;2024-01-30T10:45:06;7.80;99.90
17728;DHT22;8984;49.268;12.302;2024-01-30T10:47:35;7.90;99.90
17728;DHT22;8984;49.268;12.302;2024-01-30T10:50:02;8.00;99.90
17728;DHT22;8984;49.268;12.302;2024-01-30T10:52:29;8.10;99.90
17728;DHT22;8984;49.268;12.302;2024-01-30T10:54:58;8.20;99.90
17728;DHT22;8984;49.268;12.302;2024-01-30T10:57:27;8.30;99.90
17728;DHT22;8984;49.268;12.302;2024-01-30T10:59:56;8.40;99.90
17728;DHT22;8984;49.268;12.302;2024-01-30T11:02:24;8.60;99.90
17728;DHT22;8984;49.268;12.302;2024-01-30T11:04:56;8.70;99.90
17728;DHT22;8984;49.268;12.302;2024-01-30T11:07:25;8.80;99.90
17728;DHT22;8984;49.268;12.302;2024-01-30T11:09:53;8.90;99.90
17728;DHT22;8984;49.268;12.302;2024-01-30T11:12:23;9.00;99.90
17728;DHT22;8984;49.268;12.302;2024-01-30T11:15:01;8.90;99.90
17728;DHT22;8984;49.268;12.302;2024-01-30T11:17:43;9.00;99.90
17728;DHT22;8984;49.268;12.302;2024-01-30T11:20:11;9.00;99.90
17728;DHT22;8984;49.268;12.302;2024-01-30T11:22:41;9.00;99.90
17728;DHT22;8984;49.268;12.302;2024-01-30T11:25:11;9.20;99.90
17728;DHT22;8984;49.268;12.302;2024-01-30T11:27:38;9.20;99.90
17728;DHT22;8984;49.268;12.302;2024-01-30T11:30:08;9.30;99.90
17728;DHT22;8984;49.268;12.302;2024-01-30T11:32:35;9.20;99.90
17728;DHT22;8984;49.268;12.302;2024-01-30T11:35:03;9.20;99.90
17728;DHT22;8984;49.268;12.302;2024-01-30T11:37:32;9.20;99.90
17728;DHT22;8984;49.268;12.302;2024-01-30T11:39:59;9.30;99.90
17728;DHT22;8984;49.268;12.302;2024-01-30T11:42:26;9.40;99.90
17728;DHT22;8984;49.268;12.302;2024-01-30T11:44:53;9.50;99.90
17728;DHT22;8984;49.268;12.302;2024-01-30T11:47:22;9.60;99.90
17728;DHT22;8984;49.268;12.302;2024-01-30T11:49:49;9.70;99.90
17728;DHT22;8984;49.268;12.302;2024-01-30T11:52:16;9.80;99.90
17728;DHT22;8984;49.268;12.302;2024-01-30T11:54:43;9.80;99.90
17728;DHT22;8984;49.268;12.302;2024-01-30T11:57:10;9.80;99.90
17728;DHT22;8984;49.268;12.302;2024-01-30T11:59:37;9.90;99.90
17728;DHT22;8984;49.268;12.302;2024-01-30T12:02:04;10.00;99.90
17728;DHT22;8984;49.268;12.302;2024-01-30T12:04:32;10.00;99.90
17728;DHT22;8984;49.268;12.302;2024-01-30T12:06:59;10.10;99.90
17728;DHT22;8984;49.268;12.302;2024-01-30T12:09:26;10.20;99.90
17728;DHT22;8984;49.268;12.302;2024-01-30T12:11:53;10.20;99.90
17728;DHT22;8984;49.268;12.302;2024-01-30T12:14:20;10.30;99.90
17728;DHT22;8984;49.268;12.302;2024-01-30T12:16:50;10.30;99.90
17728;DHT22;8984;49.268;12.302;2024-01-30T12:19:23;10.40;99.90
17728;DHT22;8984;49.268;12.302;2024-01-30T12:21:55;10.60;99.90
17728;DHT22;8984;49.268;12.302;2024-01-30T12:24:24;10.70;99.90
17728;DHT22;8984;49.268;12.302;2024-01-30T12:26:51;10.80;99.90
17728;DHT22;8984;49.268;12.302;2024-01-30T12:29:20;10.90;99.90
17728;DHT22;8984;49.268;12.302;2024-01-30T12:31:47;11.00;99.90
17728;DHT22;8984;49.268;12.302;2024-01-30T12:34:14;11.00;99.90
17728;DHT22;8984;49.268;12.302;2024-01-30T12:36:42;11.10;99.90
17728;DHT22;8984;49.268;12.302;2024-01-30T12:39:12;11.00;99.90
17728;DHT22;8984;49.268;12.302;2024-01-30T12:41:38;11.00;99.90
17728;DHT22;8984;49.268;12.302;2024-01-30T12:44:06;11.10;99.90
17728;DHT22;8984;49.268;12.302;2024-01-30T12:46:34;10.90;99.90
17728;DHT22;8984;49.268;12.302;2024-01-30T12:49:01;11.00;99.90
17728;DHT22;8984;49.268;12.302;2024-01-30T12:51:28;11.10;99.90
17728;DHT22;8984;49.268;12.302;2024-01-30T12:53:55;11.00;99.90
17728;DHT22;8984;49.268;12.302;2024-01-30T12:56:23;11.00;99.90
17728;DHT22;8984;49.268;12.302;2024-01-30T12:58:50;11.00;99.90
17728;DHT22;8984;49.268;12.302;2024-01-30T13:01:17;11.00;99.90
17728;DHT22;8984;49.268;12.302;2024-01-30T13:03:44;10.90;99.90
17728;DHT22;8984;49.268;12.302;2024-01-30T13:06:10;11.00;99.90
17728;DHT22;8984;49.268;12.302;2024-01-30T13:08:38;11.00;99.90
17728;DHT22;8984;49.268;12.302;2024-01-30T13:11:04;11.00;99.90
17728;DHT22;8984;49.268;12.302;2024-01-30T13:13:33;11.00;99.90
17728;DHT22;8984;49.268;12.302;2024-01-30T13:16:01;11.00;99.90
17728;DHT22;8984;49.268;12.302;2024-01-30T13:18:28;11.00;99.90
17728;DHT22;8984;49.268;12.302;2024-01-30T13:20:54;11.00;99.90
17728;DHT22;8984;49.268;12.302;2024-01-30T13:23:21;11.00;99.90
17728;DHT22;8984;49.268;12.302;2024-01-30T13:25:48;10.90;99.90
17728;DHT22;8984;49.268;12.302;2024-01-30T13:28:15;10.90;99.90
17728;DHT22;8984;49.268;12.302;2024-01-30T13:30:43;10.90;99.90
17728;DHT22;8984;49.268;12.302;2024-01-30T13:33:10;10.90;99.90
17728;DHT22;8984;49.268;12.302;2024-01-30T13:35:37;10.90;99.90
17728;DHT22;8984;49.268;12.302;2024-01-30T13:38:04;10.90;99.90
17728;DHT22;8984;49.268;12.302;2024-01-30T13:40:30;10.80;99.90
17728;DHT22;8984;49.268;12.302;2024-01-30T13:42:58;10.90;99.90
17728;DHT22;8984;49.268;12.302;2024-01-30T13:45:24;10.90;99.90
17728;DHT22;8984;49.268;12.302;2024-01-30T13:47:52;10.70;99.90
17728;DHT22;8984;49.268;12.302;2024-01-30T13:50:19;10.60;99.90
17728;DHT22;8984;49.268;12.302;2024-01-30T13:52:46;10.70;99.90
17728;DHT22;8984;49.268;12.302;2024-01-30T13:55:13;10.60;99.90
17728;DHT22;8984;49.268;12.302;2024-01-30T13:57:40;10.60;99.90
17728;DHT22;8984;49.268;12.302;2024-01-30T14:00:07;10.60;99.90
17728;DHT22;8984;49.268;12.302;2024-01-30T14:02:35;10.50;99.90
17728;DHT22;8984;49.268;12.302;2024-01-30T14:05:04;10.50;99.90
17728;DHT22;8984;49.268;12.302;2024-01-30T14:07:32;10.50;99.90
17728;DHT22;8984;49.268;12.302;2024-01-30T14:09:59;10.50;99.90
17728;DHT22;8984;49.268;12.302;2024-01-30T14:12:26;10.40;99.90
17728;DHT22;8984;49.268;12.302;2024-01-30T14:14:53;10.50;99.90
17728;DHT22;8984;49.268;12.302;2024-01-30T14:17:19;10.40;99.90
17728;DHT22;8984;49.268;12.302;2024-01-30T14:19:46;10.40;99.90
17728;DHT22;8984;49.268;12.302;2024-01-30T14:22:15;10.40;99.90
17728;DHT22;8984;49.268;12.302;2024-01-30T14:24:42;10.50;99.90
17728;DHT22;8984;49.268;12.302;2024-01-30T14:27:10;10.50;99.90
17728;DHT22;8984;49.268;12.302;2024-01-30T14:29:38;10.50;99.90
17728;DHT22;8984;49.268;12.302;2024-01-30T14:32:07;10.50;99.90
17728;DHT22;8984;49.268;12.302;2024-01-30T14:34:34;10.40;99.90
17728;DHT22;8984;49.268;12.302;2024-01-30T14:37:01;10.60;99.90
17728;DHT22;8984;49.268;12.302;2024-01-30T14:39:29;10.60;99.90
17728;DHT22;8984;49.268;12.302;2024-01-30T14:41:56;10.60;99.90
17728;DHT22;8984;49.268;12.302;2024-01-30T14:44:23;10.60;99.90
17728;DHT22;8984;49.268;12.302;2024-01-30T14:46:50;10.50;99.90
17728;DHT22;8984;49.268;12.302;2024-01-30T14:49:17;10.50;99.90
17728;DHT22;8984;49.268;12.302;2024-01-30T14:51:43;10.40;99.90
17728;DHT22;8984;49.268;12.302;2024-01-30T14:54:10;10.30;99.90
17728;DHT22;8984;49.268;12.302;2024-01-30T14:56:39;10.30;99.90
17728;DHT22;8984;49.268;12.302;2024-01-30T14:59:06;10.30;99.90
17728;DHT22;8984;49.268;12.302;2024-01-30T15:01:33;10.00;99.90
17728;DHT22;8984;49.268;12.302;2024-01-30T15:04:00;9.90;99.90
17728;DHT22;8984;49.268;12.302;2024-01-30T15:06:28;9.90;99.90
17728;DHT22;8984;49.268;12.302;2024-01-30T15:08:55;9.80;99.90
17728;DHT22;8984;49.268;12.302;2024-01-30T15:11:22;9.70;99.90
17728;DHT22;8984;49.268;12.302;2024-01-30T15:13:50;9.70;99.90
17728;DHT22;8984;49.268;12.302;2024-01-30T15:16:17;9.70;99.90
17728;DHT22;8984;49.268;12.302;2024-01-30T15:18:44;9.60;99.90
17728;DHT22;8984;49.268;12.302;2024-01-30T15:21:11;9.60;99.90
17728;DHT22;8984;49.268;12.302;2024-01-30T15:23:37;9.60;99.90
17728;DHT22;8984;49.268;12.302;2024-01-30T15:26:04;9.50;99.90
17728;DHT22;8984;49.268;12.302;2024-01-30T15:28:35;9.50;99.90
17728;DHT22;8984;49.268;12.302;2024-01-30T15:31:05;9.50;99.90
17728;DHT22;8984;49.268;12.302;2024-01-30T15:33:33;9.40;99.90
17728;DHT22;8984;49.268;12.302;2024-01-30T15:36:00;9.30;99.90
17728;DHT22;8984;49.268;12.302;2024-01-30T15:38:27;9.20;99.90